The Bluffs, Louisiana
Current Conditions -  °F | °C
As of 5:55 PM on Saturday 25 Oct 2014 (Local Time) from KHZR Reporting Station
Clear Clear  
Wind Chill: 77°   Ceiling: Unl
Heat Index: 78°   Visibility: 10mi
Dew Point: 54°   Wind: 0mph
Humidity: 44%   Direction: NA
Pressure: 30.08"   Gusts: NA
Location:  30.8345°N, 91.2519°W
Report Text: KHZR 252255Z AUTO 00000KT 10SM CLR 25/12 A3008 RMK AO2 T02500121
Loading
Personal Weather Stations






























Interactive Weather Map
Tropical Storm Tracking
New forecast layout! Learn more

10-Day Weather Forecast

Advertisements
Track Severe Weather on mobile